DAL1254 KJFK-KRDU
Flight info
| Callsign | DAL1254 |
|---|---|
| Flight time | 1h 21m |
| Altitude | 36000 |
| Route | WAVEY EMJAY Q167 ZJAAY TAQLE3 |
| Aircraft | B738/M-SDE2E3FGHIRWXY/LB1 |
Departure
| Time | 2026-05-06 23:19 |
|---|---|
| Airport | John F. Kennedy International Airport (KJFK) |
Arrival
| Time | 2026-05-07 00:41 |
|---|---|
| Airport | Raleigh-Durham International Airport (KRDU) |
| Time | Latitude | Longitude | Altitude | Speed | Heading |
|---|---|---|---|---|---|
| 2026-05-06 22:52 | 40.64102 | -73.78311 | 19 ft | 0 kts | 60° |
| 2026-05-06 23:05 | 40.64099 | -73.78318 | 22 ft | 2 kts | 60° |
| 2026-05-06 23:05 | 40.64091 | -73.78337 | 21 ft | 2 kts | 60° |
| 2026-05-06 23:05 | 40.64082 | -73.78355 | 22 ft | 2 kts | 60° |
| 2026-05-06 23:06 | 40.64074 | -73.78374 | 23 ft | 2 kts | 60° |
| 2026-05-06 23:06 | 40.64073 | -73.78378 | 23 ft | 0 kts | 60° |
| 2026-05-06 23:08 | 40.64073 | -73.78373 | 20 ft | 3 kts | 75° |
| 2026-05-06 23:08 | 40.64042 | -73.78349 | 20 ft | 7 kts | 168° |
| 2026-05-06 23:08 | 40.63991 | -73.78334 | 20 ft | 7 kts | 167° |
| 2026-05-06 23:09 | 40.63943 | -73.78316 | 20 ft | 7 kts | 161° |
| 2026-05-06 23:09 | 40.63893 | -73.78299 | 20 ft | 8 kts | 171° |
| 2026-05-06 23:09 | 40.63835 | -73.78289 | 20 ft | 8 kts | 173° |
| 2026-05-06 23:09 | 40.63779 | -73.78280 | 20 ft | 8 kts | 173° |
| 2026-05-06 23:10 | 40.63725 | -73.78271 | 20 ft | 8 kts | 173° |
| 2026-05-06 23:10 | 40.63673 | -73.78263 | 20 ft | 7 kts | 173° |
| 2026-05-06 23:10 | 40.63622 | -73.78255 | 20 ft | 7 kts | 174° |
| 2026-05-06 23:10 | 40.63606 | -73.78254 | 20 ft | 0 kts | 178° |
| 2026-05-06 23:11 | 40.63601 | -73.78254 | 20 ft | 4 kts | 181° |
| 2026-05-06 23:12 | 40.63543 | -73.78281 | 21 ft | 14 kts | 211° |
| 2026-05-06 23:12 | 40.63458 | -73.78327 | 21 ft | 11 kts | 167° |
| 2026-05-06 23:12 | 40.63413 | -73.78248 | 21 ft | 11 kts | 121° |
| 2026-05-06 23:12 | 40.63375 | -73.78164 | 21 ft | 11 kts | 121° |
| 2026-05-06 23:13 | 40.63341 | -73.78080 | 21 ft | 10 kts | 111° |
| 2026-05-06 23:13 | 40.63328 | -73.77979 | 20 ft | 12 kts | 88° |
| 2026-05-06 23:13 | 40.63354 | -73.77865 | 21 ft | 13 kts | 62° |
| 2026-05-06 23:13 | 40.63415 | -73.77780 | 21 ft | 13 kts | 34° |
| 2026-05-06 23:14 | 40.63494 | -73.77718 | 21 ft | 14 kts | 31° |
| 2026-05-06 23:14 | 40.63579 | -73.77651 | 19 ft | 15 kts | 31° |
| 2026-05-06 23:14 | 40.63668 | -73.77582 | 19 ft | 15 kts | 30° |
| 2026-05-06 23:14 | 40.63755 | -73.77514 | 19 ft | 14 kts | 31° |
| 2026-05-06 23:15 | 40.63837 | -73.77451 | 19 ft | 14 kts | 31° |
| 2026-05-06 23:15 | 40.63916 | -73.77388 | 20 ft | 13 kts | 32° |
| 2026-05-06 23:15 | 40.63995 | -73.77325 | 20 ft | 14 kts | 30° |
| 2026-05-06 23:15 | 40.64094 | -73.77249 | 20 ft | 19 kts | 30° |
| 2026-05-06 23:16 | 40.64225 | -73.77146 | 21 ft | 24 kts | 31° |
| 2026-05-06 23:16 | 40.64365 | -73.77036 | 20 ft | 23 kts | 31° |
| 2026-05-06 23:16 | 40.64515 | -73.76979 | 19 ft | 22 kts | 18° |
| 2026-05-06 23:16 | 40.64645 | -73.76880 | 19 ft | 21 kts | 31° |
| 2026-05-06 23:17 | 40.64768 | -73.76784 | 20 ft | 20 kts | 33° |
| 2026-05-06 23:17 | 40.64886 | -73.76692 | 22 ft | 19 kts | 30° |
| 2026-05-06 23:17 | 40.65001 | -73.76603 | 20 ft | 19 kts | 31° |
| 2026-05-06 23:17 | 40.65083 | -73.76534 | 20 ft | 0 kts | 40° |
| 2026-05-06 23:18 | 40.65091 | -73.76523 | 21 ft | 9 kts | 50° |
| 2026-05-06 23:18 | 40.65075 | -73.76412 | 22 ft | 15 kts | 126° |
| 2026-05-06 23:18 | 40.64981 | -73.76378 | 21 ft | 16 kts | 210° |
| 2026-05-06 23:18 | 40.64892 | -73.76455 | 20 ft | 38 kts | 213° |
| 2026-05-06 23:19 | 40.64448 | -73.76806 | 20 ft | 109 kts | 211° |
| 2026-05-06 23:19 | 40.63626 | -73.77452 | 56 ft | 161 kts | 211° |
| 2026-05-06 23:19 | 40.62651 | -73.78256 | 765 ft | 162 kts | 212° |
| 2026-05-06 23:19 | 40.61750 | -73.79015 | 1807 ft | 150 kts | 214° |
| 2026-05-06 23:20 | 40.60820 | -73.79757 | 2420 ft | 170 kts | 215° |
| 2026-05-06 23:20 | 40.59732 | -73.80603 | 2748 ft | 192 kts | 213° |
| 2026-05-06 23:20 | 40.58482 | -73.81486 | 3063 ft | 213 kts | 211° |
| 2026-05-06 23:20 | 40.57114 | -73.82339 | 3589 ft | 227 kts | 202° |
| 2026-05-06 23:21 | 40.55442 | -73.82521 | 4050 ft | 255 kts | 178° |
| 2026-05-06 23:21 | 40.53715 | -73.81751 | 4847 ft | 272 kts | 156° |
| 2026-05-06 23:21 | 40.52226 | -73.80120 | 5661 ft | 288 kts | 135° |
| 2026-05-06 23:21 | 40.51182 | -73.77800 | 6378 ft | 304 kts | 114° |
| 2026-05-06 23:22 | 40.50716 | -73.75061 | 7171 ft | 310 kts | 99° |
| 2026-05-06 23:22 | 40.50483 | -73.72224 | 7964 ft | 314 kts | 98° |
| 2026-05-06 23:22 | 40.50270 | -73.69347 | 8757 ft | 318 kts | 100° |
| 2026-05-06 23:22 | 40.49511 | -73.66663 | 9488 ft | 313 kts | 132° |
| 2026-05-06 23:23 | 40.47945 | -73.64764 | 10248 ft | 305 kts | 149° |
| 2026-05-06 23:23 | 40.46185 | -73.63057 | 10566 ft | 327 kts | 149° |
| 2026-05-06 23:23 | 40.44320 | -73.61237 | 10748 ft | 351 kts | 149° |
| 2026-05-06 23:23 | 40.42315 | -73.59231 | 10976 ft | 372 kts | 148° |
| 2026-05-06 23:24 | 40.40248 | -73.57107 | 11482 ft | 382 kts | 147° |
| 2026-05-06 23:24 | 40.38160 | -73.54923 | 12180 ft | 385 kts | 147° |
| 2026-05-06 23:24 | 40.36065 | -73.52715 | 12894 ft | 388 kts | 147° |
| 2026-05-06 23:24 | 40.33947 | -73.50479 | 13534 ft | 393 kts | 147° |
| 2026-05-06 23:25 | 40.31804 | -73.48219 | 14126 ft | 397 kts | 147° |
| 2026-05-06 23:25 | 40.29638 | -73.45936 | 14716 ft | 401 kts | 146° |
| 2026-05-06 23:25 | 40.27452 | -73.43635 | 15309 ft | 405 kts | 146° |
| 2026-05-06 23:25 | 40.25242 | -73.41315 | 15908 ft | 409 kts | 146° |
| 2026-05-06 23:26 | 40.23004 | -73.38984 | 16496 ft | 412 kts | 148° |
| 2026-05-06 23:26 | 40.20693 | -73.36765 | 17076 ft | 414 kts | 150° |
| 2026-05-06 23:26 | 40.18328 | -73.34586 | 17667 ft | 417 kts | 150° |
| 2026-05-06 23:26 | 40.15947 | -73.32389 | 18217 ft | 421 kts | 149° |
| 2026-05-06 23:27 | 40.13465 | -73.30382 | 18669 ft | 417 kts | 162° |
| 2026-05-06 23:27 | 40.10732 | -73.29483 | 19128 ft | 407 kts | 181° |
| 2026-05-06 23:27 | 40.07951 | -73.29741 | 19640 ft | 398 kts | 198° |
| 2026-05-06 23:27 | 40.05366 | -73.30915 | 20128 ft | 391 kts | 212° |
| 2026-05-06 23:28 | 40.03138 | -73.32901 | 20607 ft | 386 kts | 224° |
| 2026-05-06 23:28 | 40.01095 | -73.35181 | 21101 ft | 388 kts | 226° |
| 2026-05-06 23:28 | 39.99065 | -73.37519 | 21558 ft | 390 kts | 226° |
| 2026-05-06 23:28 | 39.97017 | -73.39874 | 22037 ft | 393 kts | 226° |
| 2026-05-06 23:29 | 39.94950 | -73.42225 | 22499 ft | 395 kts | 226° |
| 2026-05-06 23:29 | 39.92864 | -73.44572 | 22867 ft | 398 kts | 226° |
| 2026-05-06 23:29 | 39.90754 | -73.46930 | 22869 ft | 399 kts | 225° |
| 2026-05-06 23:29 | 39.88651 | -73.49270 | 22875 ft | 397 kts | 225° |
| 2026-05-06 23:30 | 39.86549 | -73.51607 | 22888 ft | 398 kts | 225° |
| 2026-05-06 23:30 | 39.84443 | -73.53949 | 22891 ft | 398 kts | 225° |
| 2026-05-06 23:30 | 39.82364 | -73.56261 | 22892 ft | 399 kts | 226° |
| 2026-05-06 23:30 | 39.80228 | -73.58638 | 22892 ft | 399 kts | 226° |
| 2026-05-06 23:31 | 39.78146 | -73.60955 | 22890 ft | 399 kts | 225° |
| 2026-05-06 23:31 | 39.76035 | -73.63302 | 22893 ft | 399 kts | 225° |
| 2026-05-06 23:31 | 39.73919 | -73.65652 | 22888 ft | 400 kts | 226° |
| 2026-05-06 23:31 | 39.71806 | -73.67998 | 22888 ft | 400 kts | 225° |
| 2026-05-06 23:32 | 39.69693 | -73.70341 | 22891 ft | 400 kts | 225° |
| 2026-05-06 23:32 | 39.67602 | -73.72659 | 22889 ft | 400 kts | 225° |
| 2026-05-06 23:32 | 39.65464 | -73.75026 | 22887 ft | 400 kts | 225° |
| 2026-05-06 23:32 | 39.63350 | -73.77364 | 22890 ft | 399 kts | 225° |
| 2026-05-06 23:33 | 39.61236 | -73.79701 | 22888 ft | 399 kts | 225° |
| 2026-05-06 23:33 | 39.59113 | -73.82047 | 22953 ft | 402 kts | 225° |
| 2026-05-06 23:33 | 39.56976 | -73.84407 | 23382 ft | 404 kts | 226° |
| 2026-05-06 23:33 | 39.54839 | -73.86762 | 23865 ft | 403 kts | 226° |
| 2026-05-06 23:34 | 39.52703 | -73.89115 | 24260 ft | 404 kts | 226° |
| 2026-05-06 23:34 | 39.50554 | -73.91482 | 24573 ft | 407 kts | 226° |
| 2026-05-06 23:34 | 39.48387 | -73.93867 | 24893 ft | 409 kts | 226° |
| 2026-05-06 23:34 | 39.46209 | -73.96261 | 25242 ft | 411 kts | 226° |
| 2026-05-06 23:35 | 39.44026 | -73.98659 | 25585 ft | 413 kts | 226° |
| 2026-05-06 23:35 | 39.41855 | -74.01040 | 25896 ft | 415 kts | 226° |
| 2026-05-06 23:35 | 39.39648 | -74.03457 | 26217 ft | 417 kts | 226° |
| 2026-05-06 23:35 | 39.37438 | -74.05872 | 26706 ft | 414 kts | 226° |
| 2026-05-06 23:36 | 39.35242 | -74.08267 | 27229 ft | 412 kts | 226° |
| 2026-05-06 23:36 | 39.33056 | -74.10650 | 27670 ft | 411 kts | 226° |
| 2026-05-06 23:36 | 39.30872 | -74.13032 | 28076 ft | 410 kts | 226° |
| 2026-05-06 23:36 | 39.29429 | -74.14605 | 28382 ft | 409 kts | 226° |
| 2026-05-06 23:37 | 39.27256 | -74.16972 | 28861 ft | 408 kts | 226° |
| 2026-05-06 23:37 | 39.25082 | -74.19339 | 29307 ft | 407 kts | 226° |
| 2026-05-06 23:37 | 39.22915 | -74.21696 | 29732 ft | 406 kts | 226° |
| 2026-05-06 23:37 | 39.20751 | -74.24048 | 30153 ft | 405 kts | 227° |
| 2026-05-06 23:38 | 39.18606 | -74.26377 | 30554 ft | 403 kts | 227° |
| 2026-05-06 23:38 | 39.16457 | -74.28709 | 30916 ft | 402 kts | 227° |
| 2026-05-06 23:38 | 39.14319 | -74.31027 | 31242 ft | 402 kts | 227° |
| 2026-05-06 23:38 | 39.12210 | -74.33312 | 31629 ft | 400 kts | 228° |
| 2026-05-06 23:39 | 39.10086 | -74.35611 | 31888 ft | 401 kts | 228° |
| 2026-05-06 23:39 | 39.05791 | -74.40262 | 31889 ft | 406 kts | 228° |
| 2026-05-06 23:40 | 39.01458 | -74.44937 | 31897 ft | 405 kts | 228° |
| 2026-05-06 23:40 | 38.97147 | -74.49581 | 31894 ft | 404 kts | 228° |
| 2026-05-06 23:41 | 38.92854 | -74.54234 | 31899 ft | 401 kts | 229° |
| 2026-05-06 23:41 | 38.88776 | -74.59017 | 31892 ft | 399 kts | 231° |
| 2026-05-06 23:42 | 38.84710 | -74.63841 | 31897 ft | 398 kts | 231° |
| 2026-05-06 23:42 | 38.80626 | -74.68632 | 31895 ft | 398 kts | 230° |
| 2026-05-06 23:43 | 38.76533 | -74.73407 | 31899 ft | 397 kts | 230° |
| 2026-05-06 23:43 | 38.72345 | -74.78057 | 31892 ft | 400 kts | 227° |
| 2026-05-06 23:44 | 38.67999 | -74.82534 | 31901 ft | 400 kts | 227° |
| 2026-05-06 23:44 | 38.63662 | -74.87004 | 31901 ft | 400 kts | 227° |
| 2026-05-06 23:45 | 38.59361 | -74.91468 | 31904 ft | 400 kts | 227° |
| 2026-05-06 23:45 | 38.55037 | -74.95959 | 31894 ft | 400 kts | 227° |
| 2026-05-06 23:46 | 38.50764 | -75.00491 | 31901 ft | 398 kts | 229° |
| 2026-05-06 23:46 | 38.46616 | -75.05163 | 31890 ft | 399 kts | 228° |
| 2026-05-06 23:47 | 38.42201 | -75.09517 | 31897 ft | 402 kts | 225° |
| 2026-05-06 23:47 | 38.37675 | -75.13734 | 31884 ft | 402 kts | 225° |
| 2026-05-06 23:48 | 38.33172 | -75.17957 | 31890 ft | 402 kts | 225° |
| 2026-05-06 23:48 | 38.28733 | -75.22152 | 31889 ft | 401 kts | 225° |
| 2026-05-06 23:49 | 38.24228 | -75.26416 | 31896 ft | 401 kts | 225° |
| 2026-05-06 23:49 | 38.19754 | -75.30646 | 31896 ft | 400 kts | 225° |
| 2026-05-06 23:50 | 38.15282 | -75.34865 | 31894 ft | 400 kts | 225° |
| 2026-05-06 23:50 | 38.08580 | -75.41178 | 31911 ft | 400 kts | 225° |
| 2026-05-06 23:51 | 38.04184 | -75.45396 | 31764 ft | 392 kts | 228° |
| 2026-05-06 23:51 | 38.02172 | -75.47651 | 31489 ft | 380 kts | 230° |
| 2026-05-06 23:51 | 38.00267 | -75.49919 | 31242 ft | 372 kts | 231° |
| 2026-05-06 23:52 | 37.98400 | -75.52178 | 31001 ft | 370 kts | 231° |
| 2026-05-06 23:52 | 37.96534 | -75.54430 | 30762 ft | 370 kts | 231° |
| 2026-05-06 23:52 | 37.94654 | -75.56677 | 30517 ft | 371 kts | 230° |
| 2026-05-06 23:52 | 37.92773 | -75.58907 | 30284 ft | 371 kts | 230° |
| 2026-05-06 23:53 | 37.90883 | -75.61131 | 30050 ft | 371 kts | 229° |
| 2026-05-06 23:53 | 37.88990 | -75.63348 | 29784 ft | 371 kts | 229° |
| 2026-05-06 23:53 | 37.87093 | -75.65565 | 29504 ft | 371 kts | 229° |
| 2026-05-06 23:53 | 37.85200 | -75.67772 | 29229 ft | 370 kts | 229° |
| 2026-05-06 23:54 | 37.83305 | -75.69980 | 28954 ft | 369 kts | 229° |
| 2026-05-06 23:54 | 37.81441 | -75.72150 | 28690 ft | 369 kts | 229° |
| 2026-05-06 23:54 | 37.79558 | -75.74340 | 28422 ft | 367 kts | 229° |
| 2026-05-06 23:54 | 37.77683 | -75.76520 | 28117 ft | 363 kts | 229° |
| 2026-05-06 23:55 | 37.75833 | -75.78665 | 27846 ft | 357 kts | 229° |
| 2026-05-06 23:55 | 37.74016 | -75.80774 | 27594 ft | 353 kts | 230° |
| 2026-05-06 23:55 | 37.72204 | -75.82879 | 27336 ft | 354 kts | 230° |
| 2026-05-06 23:55 | 37.70395 | -75.84981 | 27090 ft | 354 kts | 230° |
| 2026-05-06 23:56 | 37.68580 | -75.87087 | 26841 ft | 354 kts | 230° |
| 2026-05-06 23:56 | 37.66767 | -75.89187 | 26598 ft | 354 kts | 230° |
| 2026-05-06 23:56 | 37.64951 | -75.91290 | 26348 ft | 354 kts | 230° |
| 2026-05-06 23:56 | 37.63138 | -75.93388 | 26112 ft | 353 kts | 230° |
| 2026-05-06 23:57 | 37.61322 | -75.95485 | 25871 ft | 353 kts | 230° |
| 2026-05-06 23:57 | 37.59591 | -75.97654 | 25628 ft | 348 kts | 235° |
| 2026-05-06 23:57 | 37.58056 | -75.99950 | 25402 ft | 345 kts | 237° |
| 2026-05-06 23:57 | 37.56549 | -76.02349 | 25166 ft | 344 kts | 238° |
| 2026-05-06 23:58 | 37.55096 | -76.04689 | 24937 ft | 343 kts | 238° |
| 2026-05-06 23:58 | 37.53619 | -76.07049 | 24698 ft | 342 kts | 238° |
| 2026-05-06 23:58 | 37.52138 | -76.09393 | 24468 ft | 341 kts | 238° |
| 2026-05-06 23:58 | 37.50657 | -76.11717 | 24247 ft | 339 kts | 238° |
| 2026-05-06 23:59 | 37.49175 | -76.14028 | 24034 ft | 338 kts | 238° |
| 2026-05-06 23:59 | 37.47699 | -76.16322 | 23969 ft | 337 kts | 238° |
| 2026-05-06 23:59 | 37.46219 | -76.18618 | 23927 ft | 338 kts | 238° |
| 2026-05-06 23:59 | 37.44741 | -76.20905 | 23925 ft | 336 kts | 238° |
| 2026-05-07 00:00 | 37.43265 | -76.23187 | 23922 ft | 336 kts | 238° |
| 2026-05-07 00:00 | 37.41787 | -76.25472 | 23920 ft | 337 kts | 238° |
| 2026-05-07 00:00 | 37.40306 | -76.27759 | 23917 ft | 337 kts | 238° |
| 2026-05-07 00:00 | 37.38825 | -76.30043 | 23914 ft | 337 kts | 238° |
| 2026-05-07 00:01 | 37.37344 | -76.32327 | 23917 ft | 337 kts | 238° |
| 2026-05-07 00:01 | 37.35862 | -76.34609 | 23917 ft | 337 kts | 238° |
| 2026-05-07 00:01 | 37.34377 | -76.36896 | 23918 ft | 337 kts | 238° |
| 2026-05-07 00:01 | 37.32883 | -76.39197 | 23928 ft | 345 kts | 238° |
| 2026-05-07 00:02 | 37.31356 | -76.41553 | 23931 ft | 358 kts | 237° |
| 2026-05-07 00:02 | 37.29753 | -76.44020 | 23933 ft | 370 kts | 237° |
| 2026-05-07 00:02 | 37.28101 | -76.46556 | 23926 ft | 380 kts | 237° |
| 2026-05-07 00:02 | 37.26409 | -76.49150 | 23924 ft | 387 kts | 237° |
| 2026-05-07 00:03 | 37.24705 | -76.51773 | 23815 ft | 383 kts | 237° |
| 2026-05-07 00:03 | 37.23058 | -76.54327 | 23707 ft | 370 kts | 238° |
| 2026-05-07 00:03 | 37.21474 | -76.56792 | 23576 ft | 356 kts | 238° |
| 2026-05-07 00:03 | 37.19948 | -76.59170 | 23464 ft | 344 kts | 238° |
| 2026-05-07 00:04 | 37.18475 | -76.61469 | 23331 ft | 333 kts | 238° |
| 2026-05-07 00:04 | 37.17036 | -76.63716 | 23236 ft | 330 kts | 238° |
| 2026-05-07 00:04 | 37.15593 | -76.65976 | 23139 ft | 332 kts | 238° |
| 2026-05-07 00:04 | 37.14165 | -76.68209 | 23035 ft | 333 kts | 238° |
| 2026-05-07 00:05 | 37.12712 | -76.70474 | 22934 ft | 334 kts | 238° |
| 2026-05-07 00:05 | 37.11253 | -76.72745 | 22835 ft | 335 kts | 238° |
| 2026-05-07 00:05 | 37.09789 | -76.75020 | 22731 ft | 336 kts | 238° |
| 2026-05-07 00:05 | 37.08321 | -76.77299 | 22623 ft | 337 kts | 238° |
| 2026-05-07 00:06 | 37.06849 | -76.79582 | 22521 ft | 337 kts | 238° |
| 2026-05-07 00:06 | 37.05369 | -76.81876 | 22440 ft | 337 kts | 238° |
| 2026-05-07 00:06 | 37.03895 | -76.84158 | 22331 ft | 337 kts | 237° |
| 2026-05-07 00:06 | 37.02418 | -76.86444 | 22229 ft | 337 kts | 237° |
| 2026-05-07 00:07 | 37.00946 | -76.88722 | 22120 ft | 337 kts | 237° |
| 2026-05-07 00:07 | 36.99470 | -76.91002 | 22018 ft | 336 kts | 237° |
| 2026-05-07 00:07 | 36.98002 | -76.93269 | 21902 ft | 336 kts | 237° |
| 2026-05-07 00:07 | 36.96522 | -76.95550 | 21648 ft | 339 kts | 237° |
| 2026-05-07 00:08 | 36.95034 | -76.97840 | 21416 ft | 337 kts | 237° |
| 2026-05-07 00:08 | 36.93583 | -77.00067 | 21177 ft | 332 kts | 237° |
| 2026-05-07 00:08 | 36.92134 | -77.02291 | 20946 ft | 328 kts | 237° |
| 2026-05-07 00:08 | 36.90694 | -77.04502 | 20719 ft | 328 kts | 237° |
| 2026-05-07 00:09 | 36.89256 | -77.06711 | 20490 ft | 327 kts | 237° |
| 2026-05-07 00:09 | 36.87818 | -77.08919 | 20268 ft | 327 kts | 237° |
| 2026-05-07 00:09 | 36.86383 | -77.11121 | 20037 ft | 327 kts | 237° |
| 2026-05-07 00:09 | 36.84946 | -77.13324 | 19806 ft | 327 kts | 237° |
| 2026-05-07 00:10 | 36.83508 | -77.15528 | 19581 ft | 326 kts | 237° |
| 2026-05-07 00:10 | 36.82076 | -77.17721 | 19344 ft | 326 kts | 237° |
| 2026-05-07 00:10 | 36.80645 | -77.19908 | 19121 ft | 324 kts | 237° |
| 2026-05-07 00:10 | 36.79221 | -77.22084 | 18901 ft | 323 kts | 237° |
| 2026-05-07 00:11 | 36.78759 | -77.22787 | 18827 ft | 323 kts | 237° |
| 2026-05-07 00:11 | 36.76356 | -77.26384 | 18452 ft | 321 kts | 236° |
| 2026-05-07 00:11 | 36.74947 | -77.28477 | 18226 ft | 319 kts | 236° |
| 2026-05-07 00:11 | 36.73518 | -77.30589 | 17974 ft | 317 kts | 236° |
| 2026-05-07 00:12 | 36.72099 | -77.32687 | 17736 ft | 315 kts | 236° |
| 2026-05-07 00:12 | 36.70690 | -77.34773 | 17509 ft | 313 kts | 236° |
| 2026-05-07 00:12 | 36.69294 | -77.36844 | 17294 ft | 311 kts | 236° |
| 2026-05-07 00:12 | 36.67904 | -77.38905 | 17088 ft | 310 kts | 236° |
| 2026-05-07 00:13 | 36.66522 | -77.40957 | 16867 ft | 308 kts | 236° |
| 2026-05-07 00:13 | 36.65143 | -77.43003 | 16660 ft | 308 kts | 236° |
| 2026-05-07 00:13 | 36.63769 | -77.45042 | 16446 ft | 307 kts | 235° |
| 2026-05-07 00:13 | 36.62397 | -77.47076 | 16228 ft | 307 kts | 235° |
| 2026-05-07 00:14 | 36.61018 | -77.49120 | 16028 ft | 307 kts | 235° |
| 2026-05-07 00:14 | 36.59643 | -77.51156 | 15796 ft | 307 kts | 235° |
| 2026-05-07 00:14 | 36.58267 | -77.53193 | 15565 ft | 308 kts | 235° |
| 2026-05-07 00:14 | 36.56906 | -77.55206 | 15363 ft | 308 kts | 234° |
| 2026-05-07 00:15 | 36.55527 | -77.57244 | 15146 ft | 308 kts | 234° |
| 2026-05-07 00:15 | 36.54143 | -77.59288 | 14930 ft | 308 kts | 234° |
| 2026-05-07 00:15 | 36.52766 | -77.61322 | 14712 ft | 307 kts | 234° |
| 2026-05-07 00:15 | 36.51388 | -77.63354 | 14488 ft | 307 kts | 234° |
| 2026-05-07 00:16 | 36.50013 | -77.65380 | 14280 ft | 306 kts | 234° |
| 2026-05-07 00:16 | 36.48644 | -77.67397 | 14056 ft | 305 kts | 234° |
| 2026-05-07 00:16 | 36.47292 | -77.69388 | 13849 ft | 304 kts | 233° |
| 2026-05-07 00:16 | 36.45916 | -77.71413 | 13614 ft | 303 kts | 233° |
| 2026-05-07 00:17 | 36.44575 | -77.73387 | 13386 ft | 301 kts | 234° |
| 2026-05-07 00:17 | 36.43230 | -77.75374 | 13162 ft | 300 kts | 234° |
| 2026-05-07 00:17 | 36.41890 | -77.77348 | 12942 ft | 298 kts | 234° |
| 2026-05-07 00:17 | 36.40555 | -77.79310 | 12779 ft | 295 kts | 234° |
| 2026-05-07 00:18 | 36.39240 | -77.81243 | 12834 ft | 292 kts | 233° |
| 2026-05-07 00:18 | 36.37924 | -77.83183 | 12835 ft | 296 kts | 233° |
| 2026-05-07 00:18 | 36.36592 | -77.85141 | 12816 ft | 295 kts | 234° |
| 2026-05-07 00:18 | 36.35277 | -77.87070 | 12616 ft | 291 kts | 234° |
| 2026-05-07 00:19 | 36.33972 | -77.88983 | 12252 ft | 290 kts | 234° |
| 2026-05-07 00:19 | 36.32669 | -77.90903 | 11801 ft | 292 kts | 234° |
| 2026-05-07 00:19 | 36.31368 | -77.92824 | 11440 ft | 290 kts | 234° |
| 2026-05-07 00:19 | 36.30079 | -77.94733 | 11105 ft | 288 kts | 234° |
| 2026-05-07 00:20 | 36.28800 | -77.96632 | 10798 ft | 286 kts | 234° |
| 2026-05-07 00:20 | 36.27550 | -77.98491 | 10591 ft | 283 kts | 233° |
| 2026-05-07 00:20 | 36.26303 | -78.00343 | 10409 ft | 276 kts | 233° |
| 2026-05-07 00:20 | 36.25084 | -78.02149 | 10237 ft | 269 kts | 233° |
| 2026-05-07 00:21 | 36.23896 | -78.03905 | 10069 ft | 262 kts | 233° |
| 2026-05-07 00:21 | 36.22730 | -78.05625 | 9807 ft | 260 kts | 233° |
| 2026-05-07 00:21 | 36.21572 | -78.07333 | 9488 ft | 259 kts | 234° |
| 2026-05-07 00:21 | 36.20421 | -78.09041 | 9182 ft | 257 kts | 234° |
| 2026-05-07 00:22 | 36.19287 | -78.10726 | 8971 ft | 252 kts | 233° |
| 2026-05-07 00:22 | 36.18178 | -78.12371 | 8773 ft | 247 kts | 233° |
| 2026-05-07 00:22 | 36.17284 | -78.14140 | 8542 ft | 241 kts | 254° |
| 2026-05-07 00:22 | 36.16892 | -78.16189 | 8124 ft | 246 kts | 259° |
| 2026-05-07 00:23 | 36.16572 | -78.18257 | 7881 ft | 243 kts | 259° |
| 2026-05-07 00:23 | 36.16265 | -78.20292 | 7718 ft | 239 kts | 259° |
| 2026-05-07 00:23 | 36.15960 | -78.22303 | 7558 ft | 238 kts | 259° |
| 2026-05-07 00:23 | 36.15652 | -78.24313 | 7406 ft | 237 kts | 259° |
| 2026-05-07 00:24 | 36.15449 | -78.25632 | 7319 ft | 234 kts | 259° |
| 2026-05-07 00:24 | 36.15149 | -78.27569 | 7262 ft | 223 kts | 259° |
| 2026-05-07 00:24 | 36.14850 | -78.29393 | 7186 ft | 210 kts | 258° |
| 2026-05-07 00:24 | 36.14539 | -78.31132 | 6897 ft | 206 kts | 258° |
| 2026-05-07 00:25 | 36.14227 | -78.32863 | 6542 ft | 206 kts | 258° |
| 2026-05-07 00:25 | 36.13917 | -78.34588 | 6213 ft | 204 kts | 258° |
| 2026-05-07 00:25 | 36.13611 | -78.36295 | 5862 ft | 202 kts | 258° |
| 2026-05-07 00:25 | 36.13307 | -78.37989 | 5513 ft | 201 kts | 257° |
| 2026-05-07 00:26 | 36.13004 | -78.39674 | 5161 ft | 200 kts | 257° |
| 2026-05-07 00:26 | 36.12702 | -78.41358 | 5069 ft | 202 kts | 257° |
| 2026-05-07 00:26 | 36.12394 | -78.43058 | 5021 ft | 203 kts | 255° |
| 2026-05-07 00:26 | 36.11820 | -78.44598 | 5015 ft | 199 kts | 240° |
| 2026-05-07 00:27 | 36.11178 | -78.46116 | 5007 ft | 200 kts | 250° |
| 2026-05-07 00:27 | 36.10690 | -78.47734 | 5003 ft | 201 kts | 250° |
| 2026-05-07 00:27 | 36.10204 | -78.49353 | 5005 ft | 200 kts | 249° |
| 2026-05-07 00:27 | 36.09481 | -78.50825 | 5010 ft | 202 kts | 233° |
| 2026-05-07 00:28 | 36.08566 | -78.52150 | 5004 ft | 203 kts | 231° |
| 2026-05-07 00:28 | 36.07609 | -78.53433 | 4987 ft | 203 kts | 230° |
| 2026-05-07 00:28 | 36.06634 | -78.54680 | 5009 ft | 202 kts | 229° |
| 2026-05-07 00:28 | 36.05643 | -78.55924 | 5010 ft | 203 kts | 229° |
| 2026-05-07 00:29 | 36.04649 | -78.57165 | 5002 ft | 204 kts | 229° |
| 2026-05-07 00:29 | 36.03649 | -78.58409 | 5001 ft | 204 kts | 229° |
| 2026-05-07 00:30 | 36.00685 | -78.62084 | 4995 ft | 201 kts | 229° |
| 2026-05-07 00:30 | 35.99701 | -78.63304 | 4979 ft | 201 kts | 229° |
| 2026-05-07 00:30 | 35.97627 | -78.65658 | 4982 ft | 207 kts | 210° |
| 2026-05-07 00:31 | 35.96162 | -78.65954 | 4851 ft | 227 kts | 179° |
| 2026-05-07 00:31 | 35.94683 | -78.65177 | 4645 ft | 245 kts | 147° |
| 2026-05-07 00:31 | 35.93549 | -78.63576 | 4431 ft | 249 kts | 130° |
| 2026-05-07 00:31 | 35.92878 | -78.61595 | 4162 ft | 255 kts | 99° |
| 2026-05-07 00:32 | 35.93095 | -78.59443 | 4049 ft | 257 kts | 67° |
| 2026-05-07 00:32 | 35.93939 | -78.57510 | 4019 ft | 258 kts | 47° |
| 2026-05-07 00:32 | 35.95330 | -78.56180 | 4008 ft | 250 kts | 23° |
| 2026-05-07 00:32 | 35.96869 | -78.55214 | 4001 ft | 246 kts | 21° |
| 2026-05-07 00:33 | 35.98412 | -78.54304 | 4012 ft | 245 kts | 17° |
| 2026-05-07 00:33 | 36.00035 | -78.53928 | 4008 ft | 233 kts | 353° |
| 2026-05-07 00:33 | 36.01654 | -78.53965 | 4002 ft | 233 kts | 351° |
| 2026-05-07 00:33 | 36.03253 | -78.54076 | 3990 ft | 222 kts | 342° |
| 2026-05-07 00:34 | 36.04516 | -78.54817 | 4006 ft | 186 kts | 313° |
| 2026-05-07 00:34 | 36.05468 | -78.55803 | 3981 ft | 172 kts | 311° |
| 2026-05-07 00:34 | 36.06252 | -78.56866 | 3976 ft | 161 kts | 287° |
| 2026-05-07 00:34 | 36.06567 | -78.58161 | 3996 ft | 160 kts | 280° |
| 2026-05-07 00:35 | 36.06761 | -78.59499 | 3976 ft | 157 kts | 258° |
| 2026-05-07 00:35 | 36.06212 | -78.60622 | 3989 ft | 160 kts | 218° |
| 2026-05-07 00:35 | 36.05112 | -78.60994 | 4013 ft | 171 kts | 192° |
| 2026-05-07 00:35 | 36.03906 | -78.61071 | 3996 ft | 175 kts | 191° |
| 2026-05-07 00:36 | 36.02785 | -78.61435 | 3983 ft | 161 kts | 221° |
| 2026-05-07 00:36 | 36.01936 | -78.62294 | 3996 ft | 157 kts | 224° |
| 2026-05-07 00:36 | 36.01140 | -78.63198 | 3993 ft | 155 kts | 229° |
| 2026-05-07 00:36 | 36.00386 | -78.64155 | 3913 ft | 160 kts | 229° |
| 2026-05-07 00:37 | 35.99583 | -78.65180 | 3526 ft | 168 kts | 230° |
| 2026-05-07 00:37 | 35.98762 | -78.66229 | 3167 ft | 171 kts | 230° |
| 2026-05-07 00:37 | 35.97955 | -78.67283 | 2797 ft | 170 kts | 230° |
| 2026-05-07 00:37 | 35.97132 | -78.68306 | 2468 ft | 162 kts | 224° |
| 2026-05-07 00:38 | 35.96344 | -78.69198 | 2301 ft | 149 kts | 226° |
| 2026-05-07 00:38 | 35.95638 | -78.70051 | 2130 ft | 137 kts | 227° |
| 2026-05-07 00:38 | 35.94978 | -78.70865 | 1970 ft | 134 kts | 227° |
| 2026-05-07 00:38 | 35.94315 | -78.71687 | 1813 ft | 138 kts | 228° |
| 2026-05-07 00:39 | 35.93631 | -78.72536 | 1605 ft | 139 kts | 226° |
| 2026-05-07 00:39 | 35.92957 | -78.73372 | 1421 ft | 136 kts | 226° |
| 2026-05-07 00:39 | 35.92284 | -78.74205 | 1257 ft | 144 kts | 226° |
| 2026-05-07 00:39 | 35.91588 | -78.75100 | 1079 ft | 141 kts | 225° |
| 2026-05-07 00:40 | 35.90911 | -78.75938 | 882 ft | 137 kts | 225° |
| 2026-05-07 00:40 | 35.90243 | -78.76754 | 692 ft | 135 kts | 225° |
| 2026-05-07 00:40 | 35.89565 | -78.77585 | 500 ft | 137 kts | 225° |
| 2026-05-07 00:40 | 35.88915 | -78.78382 | 407 ft | 121 kts | 224° |
| 2026-05-07 00:41 | 35.88412 | -78.79004 | 392 ft | 89 kts | 225° |
| 2026-05-07 00:41 | 35.88103 | -78.79382 | 391 ft | 43 kts | 225° |
| 2026-05-07 00:41 | 35.87945 | -78.79468 | 390 ft | 13 kts | 155° |
| 2026-05-07 00:41 | 35.87920 | -78.79441 | 390 ft | 0 kts | 134° |
| 2026-05-07 00:42 | 35.87917 | -78.79436 | 390 ft | 2 kts | 130° |
| 2026-05-07 00:43 | 35.87922 | -78.79418 | 390 ft | 3 kts | 43° |
| 2026-05-07 00:43 | 35.87942 | -78.79381 | 390 ft | 7 kts | 74° |
| 2026-05-07 00:43 | 35.87928 | -78.79304 | 389 ft | 10 kts | 79° |
| 2026-05-07 00:43 | 35.87966 | -78.79240 | 389 ft | 5 kts | 82° |
| 2026-05-07 00:44 | 35.87943 | -78.79210 | 389 ft | 5 kts | 146° |
| 2026-05-07 00:44 | 35.87928 | -78.79194 | 389 ft | 0 kts | 137° |